Time;durP1;ratioP1;P1;durP2;ratioP2;P2;SDS_P1;SDS_P2;PMS_P1;PMS_P2;Temp;Humidity;BMP_temperature;BMP_pressure;BME280_temperature;BME280_humidity;BME280_pressure;Samples;Min_cycle;Max_cycle;Signal;HPM_P1;HPM_P2
2022/08/06 00:01:35;;;;;;;64.68;60.63;;;;;;;;;;6188308;23;20001;-77
2022/08/06 00:04:01;;;;;;;64.03;60.03;;;;;;;;;;6188183;23;20068;-77
2022/08/06 00:06:28;;;;;;;66.75;62.63;;;;;;;;;;6188379;23;20312;-77
2022/08/06 00:08:54;;;;;;;66.47;62.40;;;;;;;;;;6188251;23;20009;-76
2022/08/06 00:11:20;;;;;;;65.10;61.08;;;;;;;;;;6188745;23;20426;-76
2022/08/06 00:13:46;;;;;;;62.28;58.25;;;;;;;;;;6188365;23;20099;-77
2022/08/06 00:16:12;;;;;;;62.40;58.35;;;;;;;;;;6188432;23;20016;-77
2022/08/06 00:18:38;;;;;;;65.20;61.17;;;;;;;;;;6188027;23;20033;-77
2022/08/06 00:21:05;;;;;;;63.92;59.83;;;;;;;;;;6187732;23;20355;-77
2022/08/06 00:23:31;;;;;;;63.20;58.85;;;;;;;;;;6186067;23;20012;-77
2022/08/06 00:25:57;;;;;;;60.10;56.35;;;;;;;;;;6188309;23;20020;-77
2022/08/06 00:28:24;;;;;;;60.30;56.63;;;;;;;;;;6188101;23;20040;-77
2022/08/06 00:30:50;;;;;;;60.70;56.72;;;;;;;;;;6187920;23;20422;-79
2022/08/06 00:33:16;;;;;;;61.22;57.25;;;;;;;;;;6187839;23;20039;-78
2022/08/06 00:35:42;;;;;;;60.65;56.95;;;;;;;;;;6185894;23;20021;-78
2022/08/06 00:38:08;;;;;;;59.95;56.25;;;;;;;;;;6185668;23;20001;-78
2022/08/06 00:40:35;;;;;;;58.85;55.33;;;;;;;;;;6188470;23;20087;-77
2022/08/06 00:43:02;;;;;;;56.78;53.17;;;;;;;;;;6186149;23;20017;-77
2022/08/06 00:45:29;;;;;;;55.72;52.35;;;;;;;;;;6188001;23;19997;-79
2022/08/06 00:47:55;;;;;;;57.83;53.67;;;;;;;;;;6187904;23;20036;-77
2022/08/06 00:50:21;;;;;;;55.25;51.85;;;;;;;;;;6188277;23;20345;-77
2022/08/06 00:52:47;;;;;;;55.50;52.15;;;;;;;;;;6188604;23;20100;-77
2022/08/06 00:55:13;;;;;;;54.78;51.33;;;;;;;;;;6188255;23;19997;-76
2022/08/06 00:57:39;;;;;;;54.85;51.35;;;;;;;;;;6187712;23;20004;-78
2022/08/06 01:00:07;;;;;;;51.40;48.15;;;;;;;;;;6188100;23;20021;-77
2022/08/06 01:02:35;;;;;;;50.53;47.53;;;;;;;;;;6188117;23;20011;-77
2022/08/06 01:05:01;;;;;;;52.20;48.92;;;;;;;;;;6187991;23;20364;-78
2022/08/06 01:07:28;;;;;;;51.67;48.53;;;;;;;;;;6188400;23;20008;-77
2022/08/06 01:09:54;;;;;;;53.42;50.13;;;;;;;;;;6186774;23;20008;-77
2022/08/06 01:12:20;;;;;;;50.33;47.20;;;;;;;;;;6188177;23;20009;-77
2022/08/06 01:14:46;;;;;;;48.85;45.85;;;;;;;;;;6186803;23;20437;-77
2022/08/06 01:17:20;;;;;;;49.10;46.15;;;;;;;;;;6187928;23;20016;-77
2022/08/06 01:19:48;;;;;;;49.88;46.85;;;;;;;;;;6188518;23;20079;-77
2022/08/06 01:22:14;;;;;;;50.10;46.85;;;;;;;;;;6187789;23;20041;-78
2022/08/06 01:24:59;;;;;;;48.80;45.78;;;;;;;;;;6186542;23;20052;-77
2022/08/06 01:27:37;;;;;;;48.15;45.15;;;;;;;;;;6187579;23;20354;-77
2022/08/06 01:30:09;;;;;;;48.92;45.92;;;;;;;;;;6186343;23;20303;-76
2022/08/06 01:32:38;;;;;;;47.40;44.50;;;;;;;;;;6187926;23;20449;-79
2022/08/06 01:35:16;;;;;;;49.22;46.33;;;;;;;;;;6188250;23;20009;-76
2022/08/06 01:37:42;;;;;;;;;;;;;;;;;;6187479;23;20073;-77
2022/08/06 01:40:12;;;;;;;44.30;41.53;;;;;;;;;;6185723;23;19900;-79
2022/08/06 01:42:39;;;;;;;47.30;44.33;;;;;;;;;;6186872;23;19997;-78
2022/08/06 01:45:07;;;;;;;48.88;45.72;;;;;;;;;;6185060;23;20055;-78
2022/08/06 01:47:33;;;;;;;48.15;45.25;;;;;;;;;;6187521;23;20085;-76
2022/08/06 01:50:01;;;;;;;49.83;46.63;;;;;;;;;;6188013;23;20422;-76
2022/08/06 01:52:27;;;;;;;;;;;;;;;;;;6188659;23;20005;-76
2022/08/06 01:54:58;;;;;;;44.35;41.75;;;;;;;;;;6187630;23;19907;-77
2022/08/06 01:57:25;;;;;;;46.03;42.97;;;;;;;;;;6188506;23;20036;-76
2022/08/06 01:59:52;;;;;;;48.42;45.25;;;;;;;;;;6187926;23;20433;-76
2022/08/06 02:02:22;;;;;;;48.20;45.22;;;;;;;;;;6187865;23;20048;-76
2022/08/06 02:04:51;;;;;;;46.83;44.08;;;;;;;;;;6187895;23;20052;-77
2022/08/06 02:07:19;;;;;;;46.45;43.45;;;;;;;;;;6185804;23;20020;-77
2022/08/06 02:09:46;;;;;;;45.85;42.95;;;;;;;;;;6186868;23;20001;-78
2022/08/06 02:12:17;;;;;;;45.92;42.75;;;;;;;;;;6187324;23;20004;-76
2022/08/06 02:14:48;;;;;;;48.72;45.53;;;;;;;;;;6187553;23;20001;-76
2022/08/06 02:17:16;;;;;;;45.00;42.30;;;;;;;;;;6187958;23;20055;-77
2022/08/06 02:19:47;;;;;;;48.35;45.28;;;;;;;;;;6186386;23;20045;-76
2022/08/06 02:22:13;;;;;;;45.15;42.42;;;;;;;;;;6187440;23;20016;-77
2022/08/06 02:24:40;;;;;;;47.50;44.65;;;;;;;;;;6187401;23;20031;-76
2022/08/06 02:27:07;;;;;;;46.75;43.75;;;;;;;;;;6210868;23;20019;-77
2022/08/06 02:29:34;;;;;;;47.55;44.45;;;;;;;;;;6186814;23;20001;-77
2022/08/06 02:32:00;;;;;;;45.90;43.15;;;;;;;;;;6187698;23;20425;-76
2022/08/06 02:34:27;;;;;;;47.53;44.20;;;;;;;;;;6187247;23;20023;-76
2022/08/06 02:36:58;;;;;;;48.15;45.30;;;;;;;;;;6187256;23;20004;-77
2022/08/06 02:39:29;;;;;;;46.53;43.75;;;;;;;;;;6187374;23;20061;-77
2022/08/06 02:42:00;;;;;;;46.65;43.65;;;;;;;;;;6187086;23;20004;-77
2022/08/06 02:44:40;;;;;;;48.50;45.55;;;;;;;;;;6187902;23;19997;-78
2022/08/06 02:47:29;;;;;;;48.58;45.38;;;;;;;;;;6187412;23;20092;-77
2022/08/06 02:49:58;;;;;;;47.15;44.20;;;;;;;;;;6178875;23;20005;-78
2022/08/06 02:52:31;;;;;;;48.80;45.78;;;;;;;;;;6186566;23;20394;-77
2022/08/06 02:54:59;;;;;;;45.83;42.97;;;;;;;;;;6186508;23;20009;-79
2022/08/06 02:57:31;;;;;;;47.53;44.70;;;;;;;;;;6186901;23;20004;-79
2022/08/06 03:00:00;;;;;;;47.60;44.55;;;;;;;;;;6186066;23;20009;-77
2022/08/06 03:02:29;;;;;;;49.08;46.10;;;;;;;;;;6187494;23;20496;-79
2022/08/06 03:04:56;;;;;;;47.13;44.13;;;;;;;;;;6186879;23;20076;-78
2022/08/06 03:07:24;;;;;;;49.38;46.35;;;;;;;;;;6186463;23;20028;-77
2022/08/06 03:09:52;;;;;;;48.03;44.90;;;;;;;;;;6186629;23;20075;-76
2022/08/06 03:12:20;;;;;;;46.70;43.88;;;;;;;;;;6185634;23;20001;-77
2022/08/06 03:14:47;;;;;;;47.95;45.10;;;;;;;;;;6186778;23;20009;-76
2022/08/06 03:17:13;;;;;;;50.30;47.03;;;;;;;;;;6187130;23;20080;-77
2022/08/06 03:19:41;;;;;;;47.58;44.67;;;;;;;;;;6186410;23;20202;-76
2022/08/06 03:22:10;;;;;;;50.17;47.03;;;;;;;;;;6187751;23;20500;-76
2022/08/06 03:24:37;;;;;;;49.08;46.00;;;;;;;;;;6185936;23;20088;-77
2022/08/06 03:27:04;;;;;;;48.85;45.92;;;;;;;;;;6184947;23;20434;-75
2022/08/06 03:29:31;;;;;;;48.75;45.67;;;;;;;;;;6186771;23;20418;-77
2022/08/06 03:31:57;;;;;;;48.90;45.70;;;;;;;;;;6186357;23;20001;-77
2022/08/06 03:34:24;;;;;;;48.47;45.22;;;;;;;;;;6187097;23;20002;-76
2022/08/06 03:36:51;;;;;;;48.25;45.40;;;;;;;;;;6186312;23;20338;-76
2022/08/06 03:39:17;;;;;;;49.70;46.40;;;;;;;;;;6185459;23;20426;-77
2022/08/06 03:41:44;;;;;;;48.88;45.72;;;;;;;;;;6186963;23;20374;-76
2022/08/06 03:44:10;;;;;;;49.25;46.03;;;;;;;;;;6186499;23;20387;-76
2022/08/06 03:46:39;;;;;;;47.60;44.78;;;;;;;;;;6185248;23;20047;-76
2022/08/06 03:49:08;;;;;;;47.80;44.65;;;;;;;;;;6185335;23;20017;-78
2022/08/06 03:51:36;;;;;;;47.78;44.90;;;;;;;;;;6187037;23;20028;-76
2022/08/06 03:54:04;;;;;;;49.05;46.03;;;;;;;;;;6187481;23;20012;-76
2022/08/06 03:56:30;;;;;;;46.45;43.58;;;;;;;;;;6186626;23;19994;-76
2022/08/06 03:59:02;;;;;;;48.75;45.50;;;;;;;;;;6186833;23;20096;-76
2022/08/06 04:01:28;;;;;;;48.72;45.70;;;;;;;;;;6187016;23;20001;-76
2022/08/06 04:03:54;;;;;;;45.78;43.03;;;;;;;;;;6185528;23;20037;-76
2022/08/06 04:06:21;;;;;;;48.25;45.28;;;;;;;;;;6186928;23;20029;-76
2022/08/06 04:08:47;;;;;;;49.85;46.75;;;;;;;;;;6186677;23;20038;-76
2022/08/06 04:11:13;;;;;;;46.60;43.78;;;;;;;;;;6186620;23;20056;-76
2022/08/06 04:13:39;;;;;;;46.83;43.92;;;;;;;;;;6186846;23;20028;-76
2022/08/06 04:16:06;;;;;;;50.10;47.10;;;;;;;;;;6184985;23;20432;-77
2022/08/06 04:18:34;;;;;;;48.67;45.58;;;;;;;;;;6186164;23;20080;-76
2022/08/06 04:21:01;;;;;;;46.13;42.92;;;;;;;;;;6186282;23;20001;-77
2022/08/06 04:23:27;;;;;;;47.67;44.60;;;;;;;;;;6187045;23;20372;-77
2022/08/06 04:25:55;;;;;;;46.00;43.28;;;;;;;;;;6187496;23;20448;-76
2022/08/06 04:28:22;;;;;;;48.38;45.42;;;;;;;;;;6186163;23;20096;-76
2022/08/06 04:30:49;;;;;;;45.88;42.92;;;;;;;;;;6186487;23;20001;-76
2022/08/06 04:33:16;;;;;;;48.60;45.50;;;;;;;;;;6186257;23;20007;-78
2022/08/06 04:35:42;;;;;;;49.95;46.75;;;;;;;;;;6187859;23;20003;-76
2022/08/06 04:38:09;;;;;;;49.63;46.13;;;;;;;;;;6188730;23;19997;-76
2022/08/06 04:40:36;;;;;;;47.33;44.42;;;;;;;;;;6188261;23;20385;-76
2022/08/06 04:43:04;;;;;;;46.88;43.75;;;;;;;;;;6188025;23;20013;-76
2022/08/06 04:45:31;;;;;;;45.60;42.85;;;;;;;;;;6188048;23;20443;-76
2022/08/06 04:47:58;;;;;;;46.40;43.50;;;;;;;;;;6187617;23;20088;-76
2022/08/06 04:50:24;;;;;;;46.10;43.30;;;;;;;;;;6186085;23;20043;-76
2022/08/06 04:52:51;;;;;;;45.25;42.50;;;;;;;;;;6186838;23;20005;-76
2022/08/06 04:55:18;;;;;;;46.38;43.20;;;;;;;;;;6188188;23;20028;-76
2022/08/06 04:57:44;;;;;;;47.53;44.30;;;;;;;;;;6188216;23;20084;-77
2022/08/06 05:00:11;;;;;;;47.63;44.75;;;;;;;;;;6186389;23;20012;-76
2022/08/06 05:02:37;;;;;;;46.20;43.33;;;;;;;;;;6185676;23;20001;-76
2022/08/06 05:05:03;;;;;;;45.88;43.03;;;;;;;;;;6186995;23;20081;-77
2022/08/06 05:07:31;;;;;;;45.60;42.80;;;;;;;;;;6187288;23;20008;-76
2022/08/06 05:09:59;;;;;;;44.58;41.65;;;;;;;;;;6186678;23;20001;-77
2022/08/06 05:12:39;;;;;;;41.50;38.85;;;;;;;;;;6187363;23;20059;-76
2022/08/06 05:15:08;;;;;;;45.33;42.47;;;;;;;;;;6187974;23;19997;-78
2022/08/06 05:17:37;;;;;;;45.40;42.72;;;;;;;;;;6185420;23;20511;-77
2022/08/06 05:20:07;;;;;;;49.88;46.65;;;;;;;;;;6185719;23;20005;-76
2022/08/06 05:22:33;;;;;;;50.78;47.70;;;;;;;;;;6187183;23;20100;-76
2022/08/06 05:25:00;;;;;;;49.58;46.38;;;;;;;;;;6186223;23;20430;-78
2022/08/06 05:27:26;;;;;;;48.50;45.50;;;;;;;;;;6187501;23;20008;-76
2022/08/06 05:29:52;;;;;;;50.15;46.65;;;;;;;;;;6187221;23;20004;-76
2022/08/06 05:32:18;;;;;;;49.25;46.30;;;;;;;;;;6186409;23;20005;-77
2022/08/06 05:34:46;;;;;;;47.83;44.85;;;;;;;;;;6185903;23;20001;-76
2022/08/06 05:37:12;;;;;;;49.58;46.42;;;;;;;;;;6186360;23;20001;-76
2022/08/06 05:39:38;;;;;;;47.83;45.00;;;;;;;;;;6188326;23;20032;-76
2022/08/06 05:42:04;;;;;;;51.47;48.08;;;;;;;;;;6185157;23;20005;-76
2022/08/06 05:44:30;;;;;;;49.13;46.17;;;;;;;;;;6186189;23;20039;-75
2022/08/06 05:47:02;;;;;;;46.67;43.45;;;;;;;;;;6185816;23;20004;-76
2022/08/06 05:49:30;;;;;;;46.80;43.85;;;;;;;;;;6185936;23;20001;-75
2022/08/06 05:52:04;;;;;;;49.28;46.08;;;;;;;;;;6186570;23;20096;-77
2022/08/06 05:54:36;;;;;;;50.95;47.50;;;;;;;;;;6186449;23;20084;-76
2022/08/06 05:57:25;;;;;;;49.13;46.13;;;;;;;;;;6188410;23;20005;-76
2022/08/06 05:59:54;;;;;;;49.72;46.78;;;;;;;;;;6180557;23;20017;-76
2022/08/06 06:02:21;;;;;;;49.47;46.33;;;;;;;;;;6186633;23;20438;-75
2022/08/06 06:04:48;;;;;;;50.63;47.38;;;;;;;;;;6183606;23;20020;-77
2022/08/06 06:07:14;;;;;;;48.97;45.85;;;;;;;;;;6183551;23;20005;-77
2022/08/06 06:09:41;;;;;;;47.50;44.50;;;;;;;;;;6184453;23;20041;-76
2022/08/06 06:12:08;;;;;;;47.95;44.75;;;;;;;;;;6186790;23;19997;-77
2022/08/06 06:14:36;;;;;;;48.20;45.35;;;;;;;;;;6186644;23;20001;-77
2022/08/06 06:17:05;;;;;;;49.97;46.92;;;;;;;;;;6187034;23;20111;-76
2022/08/06 06:19:42;;;;;;;50.20;47.13;;;;;;;;;;6186734;23;20500;-76
2022/08/06 06:22:08;;;;;;;49.70;46.60;;;;;;;;;;6186430;23;20084;-79
2022/08/06 06:24:40;;;;;;;51.67;48.53;;;;;;;;;;6186282;23;20132;-77
2022/08/06 06:27:16;;;;;;;50.97;47.65;;;;;;;;;;6191052;23;20001;-76
2022/08/06 06:29:48;;;;;;;50.47;47.10;;;;;;;;;;6190165;23;20009;-75
2022/08/06 06:32:41;;;;;;;52.85;49.60;;;;;;;;;;6189965;23;20067;-76
2022/08/06 06:35:36;;;;;;;52.17;48.90;;;;;;;;;;6167375;23;20009;-75
2022/08/06 06:38:19;;;;;;;54.10;50.85;;;;;;;;;;6177619;23;20059;-75
2022/08/06 06:41:08;;;;;;;52.15;48.92;;;;;;;;;;6190742;23;19997;-75
2022/08/06 06:43:41;;;;;;;56.00;52.38;;;;;;;;;;6183073;23;20008;-75
2022/08/06 06:46:11;;;;;;;55.03;51.25;;;;;;;;;;6193898;23;20027;-75
